North Sioux City, SD

12:00 PM CDT on July 24, 2016 (GMT -0500)
McCook Lake SD | | Change Station

Elev 1114 ft 42.54 °N, 96.51 °W | Updated 3 seconds ago

Clear
Clear
82.0 °F
Feels Like 82 °F
N
4.0
Wind Variable Wind from West
Gusts 14.0 mph

Today
High -- | Low -- °F
--% Chance of Precip.
Yesterday
High -- | Low -- °F
Precip. -- in
Pressure 29.97 in
Visibility 10.0 miles
Clouds Clear
Heat Index 82 °F
Dew Point 60 °F
Humidity 47%
Rainfall 0.00 in
Snow Depth Not available.
6:10 AM 8:53 PM
Waning Gibbous, 75% visible
METAR KSUX 241652Z 36009KT 10SM CLR 30/16 A3000 RMK AO2 SLP148 T03000161 $
Pressure 29.97 in
Visibility 10.0 miles
Clouds Clear
Heat Index 82 °F
Dew Point 60 °F
Humidity 47%
Rainfall 0.00 in
Snow Depth Not available.
6:10 AM 8:53 PM
Waning Gibbous, 75% visible
METAR KSUX 241652Z 36009KT 10SM CLR 30/16 A3000 RMK AO2 SLP148 T03000161 $

10-Day Weather Forecast

Almanac

Astronomy

Jul. 24, 2016 Rise Set
Actual Time
Civil Twilight
Nautical Twilight
Astronomical Twilight
Moon
Length of Visible Light
Length of Day
Tomorrow will be .
, % of the Moon is Illuminated

Today's Extremes

State Highs State Lows

Community

WunderPhotos

Upload Photos

1,927,121 photos uploaded!

WunderBlog® & News

Nearby

Air Quality

  Air Quality AQ Index Pollutant
Not available.

Snow Depth

Station Depth Elevation

Earthquake Activity

City Distance Mag. Time & Date
Minimum magnitude displayed is 2.5.

Coastal Water Temperatures

Place Temperature

Stations

Nearby Weather Stations

Station Location Temp. Windchill Dew Point Humidity Wind Precip. Elev Updated Type
                   

Watches & Warnings

There are currently no watches in effect.